METAR AND TAF INFORMATION
METAR FOR NFNA
NFNA 130900Z 00000KT 9999 FEW020 25/23 Q1015
NFNA 130800Z 00000KT 9999 FEW020 26/23 Q1014
NFNA 130700Z 00000KT 9999 FEW020 26/23 Q1013

TAF NFNA 130515Z 1306/1406 14005KT 9999 FEW020

 AIRPORT MAP

 RUNWAY INFORMATION
Runway 10 Runway length 6129 ft Runway width 100 ft
Runway elevation 17 ft Runway displaced threshold 394 ft Runway heading 109
Runway 28 Runway length 6129 ft Runway width 100 ft
Runway elevation 10 ft Runway displaced threshold 0 ft Runway heading 289

 AIRPORT FREQUENCIES
Type APP Name APP Frequency 119.7 MHZ
Type ATIS Name TRML INFO Frequency 128.5 MHZ
Type TWR Name TWR Frequency 119.7 MHZ

 AIRPORT NEAR NAVIGATION AIDS
Type VOR-DME Name Nausori Frequency 112200 KHZ
Type NDB Name Nausori Frequency 307 KHZ
Type NDB Name Sawani Frequency 330 KHZ
Type NDB Name Navua Frequency 281 KHZ

-